createdAt,value
2018-12-06T00:00:44.881Z,1006.20
2018-12-06T00:01:44.938Z,1006.23
2018-12-06T00:02:45.040Z,1006.21
2018-12-06T00:03:45.048Z,1006.18
2018-12-06T00:04:45.106Z,1006.12
2018-12-06T00:05:45.160Z,1006.12
2018-12-06T00:06:45.213Z,1006.06
2018-12-06T00:07:45.274Z,1006.00
2018-12-06T00:08:45.324Z,1006.07
2018-12-06T00:09:45.382Z,1006.03
2018-12-06T00:10:45.438Z,1006.00
2018-12-06T00:11:45.492Z,1005.94
2018-12-06T00:12:45.546Z,1005.89
2018-12-06T00:13:45.603Z,1005.83
2018-12-06T00:14:45.658Z,1005.85
2018-12-06T00:15:45.712Z,1005.93
2018-12-06T00:16:45.770Z,1006.03
2018-12-06T00:17:45.824Z,1006.05
2018-12-06T00:18:45.879Z,1005.99
2018-12-06T00:19:45.935Z,1006.00
2018-12-06T00:20:45.993Z,1005.96
2018-12-06T00:21:46.046Z,1005.94
2018-12-06T00:22:46.105Z,1005.93
2018-12-06T00:23:46.158Z,1005.94
2018-12-06T00:24:46.213Z,1005.94
2018-12-06T00:25:46.275Z,1005.92
2018-12-06T00:26:46.324Z,1005.92
2018-12-06T00:27:46.382Z,1005.88
2018-12-06T00:28:46.437Z,1005.87
2018-12-06T00:29:46.493Z,1005.85
2018-12-06T00:30:46.550Z,1005.87
2018-12-06T00:31:46.603Z,1005.83
2018-12-06T00:32:46.663Z,1005.87
2018-12-06T00:33:46.715Z,1006.00
2018-12-06T00:34:46.771Z,1006.03
2018-12-06T00:35:46.826Z,1006.01
2018-12-06T00:36:46.882Z,1005.99
2018-12-06T00:37:46.938Z,1006.01
2018-12-06T00:38:46.993Z,1006.01
2018-12-06T00:39:47.050Z,1006.04
2018-12-06T00:40:47.104Z,1006.03
2018-12-06T00:41:47.161Z,1006.00
2018-12-06T00:42:48.516Z,1005.98
2018-12-06T00:43:47.273Z,1006.02
2018-12-06T00:44:47.332Z,1006.02
2018-12-06T00:45:47.387Z,1006.01
2018-12-06T00:46:47.439Z,1006.09
2018-12-06T00:47:47.496Z,1006.07
2018-12-06T00:48:47.551Z,1006.04
2018-12-06T00:49:47.606Z,1006.08
2018-12-06T00:50:47.662Z,1006.04
2018-12-06T00:51:47.718Z,1006.03
2018-12-06T00:52:47.776Z,1005.98
2018-12-06T00:53:47.831Z,1005.99
2018-12-06T00:54:47.885Z,1006.03
2018-12-06T00:55:47.940Z,1006.05
2018-12-06T00:56:47.995Z,1006.00
2018-12-06T00:57:48.053Z,1006.04
2018-12-06T00:58:48.107Z,1006.03
2018-12-06T00:59:48.162Z,1006.07
2018-12-06T01:00:48.219Z,1006.03
2018-12-06T01:01:48.274Z,1005.99
2018-12-06T01:02:48.329Z,1006.03
2018-12-06T01:03:48.391Z,1005.98
2018-12-06T01:04:48.440Z,1006.02
2018-12-06T01:05:48.496Z,1006.04
2018-12-06T01:06:48.551Z,1006.01
2018-12-06T01:07:48.609Z,1005.97
2018-12-06T01:08:48.661Z,1005.98
2018-12-06T01:09:48.718Z,1006.04
2018-12-06T01:10:48.772Z,1006.04
2018-12-06T01:11:48.906Z,1006.06
2018-12-06T01:12:48.884Z,1006.04
2018-12-06T01:13:48.939Z,1006.06
2018-12-06T01:14:48.997Z,1006.13
2018-12-06T01:15:49.049Z,1006.14
2018-12-06T01:16:49.111Z,1006.15
2018-12-06T01:17:49.163Z,1006.14
2018-12-06T01:18:49.221Z,1006.19
2018-12-06T01:19:49.273Z,1006.18
2018-12-06T01:20:49.329Z,1006.21
2018-12-06T01:21:49.383Z,1006.23
2018-12-06T01:22:49.484Z,1006.27
2018-12-06T01:23:49.495Z,1006.25
2018-12-06T01:24:49.550Z,1006.24
2018-12-06T01:25:49.606Z,1006.26
2018-12-06T01:26:49.661Z,1006.31
2018-12-06T01:27:49.717Z,1006.29
2018-12-06T01:28:49.773Z,1006.31
2018-12-06T01:29:49.828Z,1006.31
2018-12-06T01:30:49.885Z,1006.28
2018-12-06T01:31:49.939Z,1006.32
2018-12-06T01:32:49.996Z,1006.33
2018-12-06T01:33:50.052Z,1006.35
2018-12-06T01:34:50.105Z,1006.30
2018-12-06T01:35:50.161Z,1006.28
2018-12-06T01:36:50.218Z,1006.30
2018-12-06T01:37:50.273Z,1006.30
2018-12-06T01:38:50.329Z,1006.30
2018-12-06T01:39:50.383Z,1006.26
2018-12-06T01:40:50.439Z,1006.28
2018-12-06T01:41:50.500Z,1006.25
2018-12-06T01:42:50.551Z,1006.24
2018-12-06T01:43:50.617Z,1006.28
2018-12-06T01:44:50.664Z,1006.23
2018-12-06T01:45:50.720Z,1006.20
2018-12-06T01:46:50.775Z,1006.23
2018-12-06T01:47:50.832Z,1006.23
2018-12-06T01:48:50.887Z,1006.20
2018-12-06T01:49:50.943Z,1006.22
2018-12-06T01:50:50.997Z,1006.22
2018-12-06T01:51:51.053Z,1006.25
2018-12-06T01:52:51.110Z,1006.22
2018-12-06T01:53:51.167Z,1006.26
2018-12-06T01:54:51.220Z,1006.24
2018-12-06T01:55:51.286Z,1006.24
2018-12-06T01:56:51.334Z,1006.28
2018-12-06T01:57:51.389Z,1006.21
2018-12-06T01:58:51.445Z,1006.27
2018-12-06T01:59:51.502Z,1006.26
2018-12-06T02:00:51.559Z,1006.25
2018-12-06T02:01:51.614Z,1006.21
2018-12-06T02:02:51.668Z,1006.24
2018-12-06T02:03:51.726Z,1006.18
2018-12-06T02:04:51.785Z,1006.22
2018-12-06T02:05:51.838Z,1006.19
2018-12-06T02:06:51.892Z,1006.25
2018-12-06T02:07:51.951Z,1006.24
2018-12-06T02:08:52.006Z,1006.18
2018-12-06T02:09:52.062Z,1006.16
2018-12-06T02:10:52.117Z,1006.14
2018-12-06T02:11:52.176Z,1006.13
2018-12-06T02:12:52.230Z,1006.12
2018-12-06T02:13:52.286Z,1006.08
2018-12-06T02:14:52.342Z,1006.11
2018-12-06T02:15:52.399Z,1006.15
2018-12-06T02:16:52.456Z,1006.10
2018-12-06T02:17:52.514Z,1006.10
2018-12-06T02:18:52.567Z,1006.06
2018-12-06T02:19:52.623Z,1006.08
2018-12-06T02:20:52.693Z,1006.05
2018-12-06T02:21:52.736Z,1006.02
2018-12-06T02:22:52.792Z,1006.00
2018-12-06T02:23:52.847Z,1006.02
2018-12-06T02:24:52.913Z,1006.03
2018-12-06T02:25:52.961Z,1006.01
2018-12-06T02:26:53.015Z,1006.00
2018-12-06T02:27:53.072Z,1006.01
2018-12-06T02:28:53.128Z,1006.08
2018-12-06T02:29:53.185Z,1006.06
2018-12-06T02:30:53.239Z,1006.02
2018-12-06T02:31:53.296Z,1006.04
2018-12-06T02:32:53.354Z,1005.99
2018-12-06T02:33:53.407Z,1005.95
2018-12-06T02:34:53.463Z,1006.01
2018-12-06T02:35:53.519Z,1005.98
2018-12-06T02:36:53.581Z,1005.99
2018-12-06T02:37:53.632Z,1006.04
2018-12-06T02:38:53.687Z,1006.01
2018-12-06T02:39:53.744Z,1005.99
2018-12-06T02:40:53.801Z,1005.96
2018-12-06T02:41:53.855Z,1006.01
2018-12-06T02:42:53.911Z,1005.95
2018-12-06T02:43:53.977Z,1005.95
2018-12-06T02:44:54.022Z,1005.95
2018-12-06T02:45:54.080Z,1005.94
2018-12-06T02:46:54.134Z,1005.94
2018-12-06T02:47:54.190Z,1005.92
2018-12-06T02:48:54.245Z,1005.93
2018-12-06T02:49:54.306Z,1005.94
2018-12-06T02:50:54.356Z,1005.89
2018-12-06T02:51:54.412Z,1005.89
2018-12-06T02:52:54.472Z,1005.86
2018-12-06T02:53:54.525Z,1005.86
2018-12-06T02:54:54.580Z,1005.85
2018-12-06T02:55:54.636Z,1005.85
2018-12-06T02:56:54.692Z,1005.82
2018-12-06T02:57:54.747Z,1005.87
2018-12-06T02:58:54.803Z,1005.88
2018-12-06T02:59:54.860Z,1005.86
2018-12-06T03:00:55.012Z,1005.85
2018-12-06T03:01:54.971Z,1005.84
2018-12-06T03:02:55.031Z,1005.86
2018-12-06T03:03:55.082Z,1005.83
2018-12-06T03:04:55.140Z,1005.89
2018-12-06T03:05:55.194Z,1005.84
2018-12-06T03:06:55.249Z,1005.79
2018-12-06T03:07:55.306Z,1005.81
2018-12-06T03:08:55.361Z,1005.79
2018-12-06T03:09:55.420Z,1005.71
2018-12-06T03:10:55.473Z,1005.66
2018-12-06T03:11:55.530Z,1005.68
2018-12-06T03:12:55.587Z,1005.64
2018-12-06T03:13:55.642Z,1005.60
2018-12-06T03:14:55.695Z,1005.56
2018-12-06T03:15:55.754Z,1005.55
2018-12-06T03:16:55.809Z,1005.51
2018-12-06T03:17:55.864Z,1005.49
2018-12-06T03:18:55.920Z,1005.46
2018-12-06T03:19:55.976Z,1005.50
2018-12-06T03:20:56.031Z,1005.48
2018-12-06T03:21:56.089Z,1005.44
2018-12-06T03:22:56.143Z,1005.43
2018-12-06T03:23:56.202Z,1005.44
2018-12-06T03:24:56.255Z,1005.50
2018-12-06T03:25:56.310Z,1005.53
2018-12-06T03:26:56.368Z,1005.56
2018-12-06T03:27:56.422Z,1005.54
2018-12-06T03:28:56.478Z,1005.57
2018-12-06T03:29:56.536Z,1005.56
2018-12-06T03:30:56.611Z,1005.58
2018-12-06T03:31:56.647Z,1005.61
2018-12-06T03:32:56.703Z,1005.60
2018-12-06T03:33:56.758Z,1005.62
2018-12-06T03:34:56.813Z,1005.61
2018-12-06T03:35:56.872Z,1005.63
2018-12-06T03:36:56.927Z,1005.68
2018-12-06T03:37:56.982Z,1005.73
2018-12-06T03:38:57.037Z,1005.73
2018-12-06T03:39:57.093Z,1005.70
2018-12-06T03:40:57.151Z,1005.74
2018-12-06T03:41:57.209Z,1005.74
2018-12-06T03:42:57.263Z,1005.74
2018-12-06T03:43:57.319Z,1005.75
2018-12-06T03:44:57.375Z,1005.73
2018-12-06T03:45:57.432Z,1005.69
2018-12-06T03:46:57.486Z,1005.64
2018-12-06T03:47:57.543Z,1005.59
2018-12-06T03:48:57.598Z,1005.54
2018-12-06T03:49:58.309Z,1005.56
2018-12-06T03:50:58.163Z,1005.56
2018-12-06T03:51:57.766Z,1005.56
2018-12-06T03:52:57.824Z,1005.59
2018-12-06T03:53:57.880Z,1005.60
2018-12-06T03:54:57.934Z,1005.61
2018-12-06T03:55:57.991Z,1005.63
2018-12-06T03:56:58.055Z,1005.68
2018-12-06T03:57:58.105Z,1005.67
2018-12-06T03:58:58.160Z,1005.74
2018-12-06T03:59:58.215Z,1005.72
2018-12-06T04:00:58.274Z,1005.71
2018-12-06T04:01:58.333Z,1005.75
2018-12-06T04:02:58.410Z,1005.77
2018-12-06T04:03:58.446Z,1005.73
2018-12-06T04:04:58.495Z,1005.75
2018-12-06T04:05:58.557Z,1005.78
2018-12-06T04:06:58.626Z,1005.73
2018-12-06T04:07:58.664Z,1005.74
2018-12-06T04:08:58.727Z,1005.78
2018-12-06T04:09:58.778Z,1005.76
2018-12-06T04:10:58.832Z,1005.78
2018-12-06T04:11:58.889Z,1005.83
2018-12-06T04:12:58.945Z,1005.86
2018-12-06T04:13:59.002Z,1005.90
2018-12-06T04:14:59.059Z,1005.92
2018-12-06T04:15:59.114Z,1005.95
2018-12-06T04:16:59.173Z,1005.98
2018-12-06T04:17:59.231Z,1006.01
2018-12-06T04:18:59.283Z,1006.03
2018-12-06T04:19:59.339Z,1006.03
2018-12-06T04:20:59.397Z,1006.04
2018-12-06T04:21:59.456Z,1006.05
2018-12-06T04:22:59.509Z,1006.04
2018-12-06T04:23:59.567Z,1005.98
2018-12-06T04:24:59.625Z,1006.01
2018-12-06T04:25:59.679Z,1006.01
2018-12-06T04:26:59.732Z,1006.00
2018-12-06T04:27:59.790Z,1006.00
2018-12-06T04:28:59.846Z,1006.01
2018-12-06T04:29:59.903Z,1005.99
2018-12-06T04:30:59.958Z,1006.02
2018-12-06T04:32:00.113Z,1006.01
2018-12-06T04:33:00.072Z,1006.01
2018-12-06T04:34:00.127Z,1006.00
2018-12-06T04:35:00.200Z,1006.00
2018-12-06T04:36:00.239Z,1005.95
2018-12-06T04:37:00.296Z,1005.98
2018-12-06T04:38:00.353Z,1005.92
2018-12-06T04:39:00.407Z,1005.90
2018-12-06T04:40:00.466Z,1005.93
2018-12-06T04:41:00.522Z,1005.89
2018-12-06T04:42:00.576Z,1005.89
2018-12-06T04:43:00.631Z,1005.86
2018-12-06T04:44:00.686Z,1005.87
2018-12-06T04:45:00.743Z,1005.86
2018-12-06T04:46:00.799Z,1005.87
2018-12-06T04:47:00.854Z,1005.93
2018-12-06T04:48:01.220Z,1005.91
2018-12-06T04:49:00.966Z,1005.89
2018-12-06T04:50:01.023Z,1005.87
2018-12-06T04:51:01.078Z,1005.83
2018-12-06T04:52:01.135Z,1005.85
2018-12-06T04:53:01.190Z,1005.88
2018-12-06T04:54:01.246Z,1005.92
2018-12-06T04:55:01.301Z,1005.84
2018-12-06T04:56:01.361Z,1005.81
2018-12-06T04:57:01.415Z,1005.84
2018-12-06T04:58:01.471Z,1005.79
2018-12-06T04:59:01.525Z,1005.81
2018-12-06T05:00:01.620Z,1005.80
2018-12-06T05:01:01.680Z,1005.72
2018-12-06T05:02:01.697Z,1005.80
2018-12-06T05:03:01.761Z,1005.80
2018-12-06T05:04:01.805Z,1005.82
2018-12-06T05:05:01.862Z,1005.83
2018-12-06T05:06:01.917Z,1005.81
2018-12-06T05:07:01.973Z,1005.80
2018-12-06T05:08:02.029Z,1005.82
2018-12-06T05:09:02.086Z,1005.82
2018-12-06T05:10:02.141Z,1005.83
2018-12-06T05:11:02.198Z,1005.81
2018-12-06T05:12:02.253Z,1005.79
2018-12-06T05:13:02.309Z,1005.82
2018-12-06T05:14:02.364Z,1005.80
2018-12-06T05:15:02.423Z,1005.77
2018-12-06T05:16:02.475Z,1005.76
2018-12-06T05:17:02.535Z,1005.79
2018-12-06T05:18:02.588Z,1005.81
2018-12-06T05:19:02.643Z,1005.78
2018-12-06T05:20:02.699Z,1005.84
2018-12-06T05:21:02.757Z,1005.78
2018-12-06T05:22:02.811Z,1005.76
2018-12-06T05:23:02.977Z,1005.78
2018-12-06T05:24:02.923Z,1005.80
2018-12-06T05:25:02.979Z,1005.80
2018-12-06T05:26:03.035Z,1005.81
2018-12-06T05:27:03.089Z,1005.85
2018-12-06T05:28:03.146Z,1005.81
2018-12-06T05:29:03.201Z,1005.82
2018-12-06T05:30:03.258Z,1005.78
2018-12-06T05:31:03.917Z,1005.80
2018-12-06T05:32:03.373Z,1005.84
2018-12-06T05:33:03.426Z,1005.87
2018-12-06T05:34:03.481Z,1005.87
2018-12-06T05:35:03.876Z,1005.89
2018-12-06T05:36:03.591Z,1005.97
2018-12-06T05:37:03.649Z,1005.98
2018-12-06T05:38:03.705Z,1006.00
2018-12-06T05:39:03.760Z,1006.04
2018-12-06T05:40:03.821Z,1006.13
2018-12-06T05:41:03.870Z,1006.12
2018-12-06T05:42:03.927Z,1006.12
2018-12-06T05:43:03.984Z,1006.13
2018-12-06T05:44:04.040Z,1006.15
2018-12-06T05:45:04.096Z,1006.12
2018-12-06T05:46:04.152Z,1006.17
2018-12-06T05:47:04.207Z,1006.16
2018-12-06T05:48:04.263Z,1006.21
2018-12-06T05:49:04.643Z,1006.26
2018-12-06T05:50:04.375Z,1006.27
2018-12-06T05:51:04.430Z,1006.26
2018-12-06T05:52:04.485Z,1006.31
2018-12-06T05:53:04.543Z,1006.35
2018-12-06T05:54:04.600Z,1006.32
2018-12-06T05:55:04.653Z,1006.34
2018-12-06T05:56:04.710Z,1006.33
2018-12-06T05:57:04.766Z,1006.38
2018-12-06T05:58:04.822Z,1006.45
2018-12-06T05:59:04.880Z,1006.45
2018-12-06T06:00:04.933Z,1006.44
2018-12-06T06:01:05.764Z,1006.44
2018-12-06T06:02:05.045Z,1006.42
2018-12-06T06:03:05.100Z,1006.49
2018-12-06T06:04:05.157Z,1006.46
2018-12-06T06:05:05.217Z,1006.48
2018-12-06T06:06:05.270Z,1006.42
2018-12-06T06:07:05.326Z,1006.47
2018-12-06T06:08:05.380Z,1006.49
2018-12-06T06:09:05.473Z,1006.55
2018-12-06T06:10:05.500Z,1006.64
2018-12-06T06:11:05.550Z,1006.65
2018-12-06T06:12:05.604Z,1006.66
2018-12-06T06:13:05.662Z,1006.65
2018-12-06T06:14:05.718Z,1006.66
2018-12-06T06:15:05.773Z,1006.66
2018-12-06T06:16:05.830Z,1006.66
2018-12-06T06:17:05.887Z,1006.68
2018-12-06T06:18:05.946Z,1006.74
2018-12-06T06:19:05.998Z,1006.75
2018-12-06T06:20:06.055Z,1006.76
2018-12-06T06:21:06.110Z,1006.73
2018-12-06T06:22:06.167Z,1006.77
2018-12-06T06:23:06.223Z,1006.75
2018-12-06T06:24:06.280Z,1006.71
2018-12-06T06:25:06.336Z,1006.67
2018-12-06T06:26:06.393Z,1006.67
2018-12-06T06:27:06.448Z,1006.69
2018-12-06T06:28:06.505Z,1006.69
2018-12-06T06:29:06.560Z,1006.71
2018-12-06T06:30:06.619Z,1006.71
2018-12-06T06:31:06.674Z,1006.76
2018-12-06T06:32:06.731Z,1006.79
2018-12-06T06:33:06.787Z,1006.82
2018-12-06T06:34:06.845Z,1006.87
2018-12-06T06:35:06.899Z,1006.92
2018-12-06T06:36:06.976Z,1006.97
2018-12-06T06:37:07.620Z,1006.98
2018-12-06T06:38:07.601Z,1007.02
2018-12-06T06:39:07.127Z,1007.05
2018-12-06T06:40:07.187Z,1007.09
2018-12-06T06:41:07.240Z,1007.10
2018-12-06T06:42:07.296Z,1007.13
2018-12-06T06:43:07.352Z,1007.12
2018-12-06T06:44:07.409Z,1007.07
2018-12-06T06:45:07.465Z,1007.08
2018-12-06T06:46:07.527Z,1007.08
2018-12-06T06:47:07.577Z,1007.09
2018-12-06T06:48:07.635Z,1007.03
2018-12-06T06:49:13.709Z,1007.10
2018-12-06T06:50:07.752Z,1007.08
2018-12-06T06:51:08.305Z,1007.09
2018-12-06T06:52:07.861Z,1007.08
2018-12-06T06:53:07.951Z,1007.03
2018-12-06T06:54:07.973Z,1007.03
2018-12-06T06:55:08.032Z,1007.03
2018-12-06T06:56:08.089Z,1007.04
2018-12-06T06:57:08.144Z,1007.02
2018-12-06T06:58:08.200Z,1007.02
2018-12-06T06:59:08.255Z,1007.03
2018-12-06T07:00:08.311Z,1007.08
2018-12-06T07:01:08.368Z,1007.09
2018-12-06T07:02:08.426Z,1007.13
2018-12-06T07:03:08.483Z,1007.13
2018-12-06T07:04:08.547Z,1007.15
2018-12-06T07:05:08.596Z,1007.15
2018-12-06T07:06:08.654Z,1007.18
2018-12-06T07:07:08.708Z,1007.22
2018-12-06T07:08:08.765Z,1007.22
2018-12-06T07:09:08.821Z,1007.22
2018-12-06T07:10:08.912Z,1007.25
2018-12-06T07:11:08.934Z,1007.28
2018-12-06T07:12:08.993Z,1007.28
2018-12-06T07:13:09.046Z,1007.29
2018-12-06T07:14:09.106Z,1007.26
2018-12-06T07:15:09.160Z,1007.24
2018-12-06T07:16:09.217Z,1007.27
2018-12-06T07:17:09.273Z,1007.28
2018-12-06T07:18:09.331Z,1007.29
2018-12-06T07:19:09.385Z,1007.35
2018-12-06T07:20:09.442Z,1007.32
2018-12-06T07:21:09.500Z,1007.39
2018-12-06T07:22:09.559Z,1007.40
2018-12-06T07:23:09.613Z,1007.45
2018-12-06T07:24:09.670Z,1007.44
2018-12-06T07:25:09.727Z,1007.49
2018-12-06T07:26:09.783Z,1007.53
2018-12-06T07:27:09.839Z,1007.55
2018-12-06T07:28:09.895Z,1007.59
2018-12-06T07:29:09.952Z,1007.64
2018-12-06T07:30:12.404Z,1007.66
2018-12-06T07:31:10.066Z,1007.70
2018-12-06T07:32:10.122Z,1007.74
2018-12-06T07:33:10.510Z,1007.80
2018-12-06T07:34:10.237Z,1007.77
2018-12-06T07:35:10.294Z,1007.85
2018-12-06T07:36:10.350Z,1007.85
2018-12-06T07:37:10.406Z,1007.87
2018-12-06T07:38:10.464Z,1007.85
2018-12-06T07:39:10.520Z,1007.84
2018-12-06T07:40:10.575Z,1007.86
2018-12-06T07:41:10.632Z,1007.88
2018-12-06T07:42:10.690Z,1007.88
2018-12-06T07:43:11.453Z,1007.86
2018-12-06T07:44:10.803Z,1007.87
2018-12-06T07:45:10.925Z,1007.81
2018-12-06T07:46:10.917Z,1007.80
2018-12-06T07:47:10.973Z,1007.77
2018-12-06T07:48:11.031Z,1007.76
2018-12-06T07:49:11.089Z,1007.73
2018-12-06T07:50:11.143Z,1007.72
2018-12-06T07:51:11.199Z,1007.71
2018-12-06T07:52:11.260Z,1007.72
2018-12-06T07:53:11.314Z,1007.68
2018-12-06T07:54:11.370Z,1007.66
2018-12-06T07:55:11.427Z,1007.71
2018-12-06T07:56:11.482Z,1007.68
2018-12-06T07:57:11.540Z,1007.68
2018-12-06T07:58:11.596Z,1007.71
2018-12-06T07:59:11.655Z,1007.71
2018-12-06T08:00:11.710Z,1007.69
2018-12-06T08:01:11.767Z,1007.66
2018-12-06T08:02:11.825Z,1007.70
2018-12-06T08:03:11.881Z,1007.66
2018-12-06T08:04:11.943Z,1007.71
2018-12-06T08:05:11.994Z,1007.72
2018-12-06T08:06:12.052Z,1007.76
2018-12-06T08:07:12.108Z,1007.77
2018-12-06T08:08:12.165Z,1007.81
2018-12-06T08:09:12.223Z,1007.77
2018-12-06T08:10:12.279Z,1007.80
2018-12-06T08:11:12.336Z,1007.82
2018-12-06T08:12:12.392Z,1007.83
2018-12-06T08:13:13.253Z,1007.89
2018-12-06T08:14:12.506Z,1007.93
2018-12-06T08:15:12.567Z,1007.93
2018-12-06T08:16:12.621Z,1007.95
2018-12-06T08:17:12.678Z,1007.98
2018-12-06T08:18:12.735Z,1008.01
2018-12-06T08:19:13.975Z,1008.00
2018-12-06T08:20:12.851Z,1008.01
2018-12-06T08:21:12.990Z,1008.00
2018-12-06T08:22:12.964Z,1008.02
2018-12-06T08:23:13.022Z,1008.06
2018-12-06T08:24:13.077Z,1008.11
2018-12-06T08:25:13.139Z,1008.09
2018-12-06T08:26:13.192Z,1008.13
2018-12-06T08:27:13.251Z,1008.08
2018-12-06T08:28:13.305Z,1008.11
2018-12-06T08:29:13.420Z,1008.07
2018-12-06T08:30:13.420Z,1008.09
2018-12-06T08:31:13.478Z,1008.13
2018-12-06T08:32:13.535Z,1008.19
2018-12-06T08:33:13.593Z,1008.20
2018-12-06T08:34:13.659Z,1008.14
2018-12-06T08:35:13.707Z,1008.11
2018-12-06T08:36:13.765Z,1008.10
2018-12-06T08:37:13.823Z,1008.12
2018-12-06T08:38:13.880Z,1008.09
2018-12-06T08:39:13.936Z,1008.09
2018-12-06T08:40:13.995Z,1008.12
2018-12-06T08:41:14.052Z,1008.15
2018-12-06T08:42:14.112Z,1008.16
2018-12-06T08:43:14.166Z,1008.18
2018-12-06T08:44:21.108Z,1008.13
2018-12-06T08:45:14.281Z,1008.16
2018-12-06T08:46:14.339Z,1008.14
2018-12-06T08:47:14.397Z,1008.15
2018-12-06T08:48:14.454Z,1008.21
2018-12-06T08:49:14.511Z,1008.24
2018-12-06T08:50:14.570Z,1008.30
2018-12-06T08:51:14.625Z,1008.30
2018-12-06T08:52:14.684Z,1008.25
2018-12-06T08:53:14.760Z,1008.25
2018-12-06T08:54:14.798Z,1008.25
2018-12-06T08:55:14.868Z,1008.20
2018-12-06T08:56:14.916Z,1008.19
2018-12-06T08:57:14.972Z,1008.22
2018-12-06T08:58:15.029Z,1008.22
2018-12-06T08:59:15.086Z,1008.30
2018-12-06T09:00:15.146Z,1008.28
2018-12-06T09:01:15.544Z,1008.32
2018-12-06T09:02:15.260Z,1008.33
2018-12-06T09:03:15.317Z,1008.35
2018-12-06T09:04:15.378Z,1008.40
2018-12-06T09:05:15.435Z,1008.38
2018-12-06T09:06:15.491Z,1008.41
2018-12-06T09:07:15.549Z,1008.40
2018-12-06T09:08:15.611Z,1008.39
2018-12-06T09:09:15.667Z,1008.43
2018-12-06T09:10:15.721Z,1008.40
2018-12-06T09:11:15.781Z,1008.40
2018-12-06T09:12:15.867Z,1008.44
2018-12-06T09:13:15.932Z,1008.50
2018-12-06T09:14:15.954Z,1008.56
2018-12-06T09:15:16.011Z,1008.51
2018-12-06T09:16:16.365Z,1008.47
2018-12-06T09:17:16.127Z,1008.47
2018-12-06T09:18:16.186Z,1008.43
2018-12-06T09:19:16.243Z,1008.44
2018-12-06T09:20:16.301Z,1008.46
2018-12-06T09:21:16.359Z,1008.46
2018-12-06T09:22:16.416Z,1008.47
2018-12-06T09:23:16.473Z,1008.41
2018-12-06T09:24:16.533Z,1008.41
2018-12-06T09:25:21.131Z,1008.40
2018-12-06T09:26:17.311Z,1008.45
2018-12-06T09:27:16.707Z,1008.49
2018-12-06T09:28:16.767Z,1008.56
2018-12-06T09:29:16.826Z,1008.56
2018-12-06T09:30:36.090Z,1008.57
2018-12-06T09:31:16.939Z,1008.55
2018-12-06T09:32:16.997Z,1008.56
2018-12-06T09:33:17.057Z,1008.58
2018-12-06T09:34:17.130Z,1008.59
2018-12-06T09:35:17.171Z,1008.64
2018-12-06T09:36:17.233Z,1008.62
2018-12-06T09:37:17.289Z,1008.58
2018-12-06T09:38:17.347Z,1008.64
2018-12-06T09:39:17.923Z,1008.69
2018-12-06T09:40:17.464Z,1008.69
2018-12-06T09:41:17.522Z,1008.67
2018-12-06T09:42:17.597Z,1008.69
2018-12-06T09:43:17.644Z,1008.68
2018-12-06T09:44:17.699Z,1008.64
2018-12-06T09:45:17.758Z,1008.64
2018-12-06T09:46:17.817Z,1008.64
2018-12-06T09:47:17.874Z,1008.67
2018-12-06T09:48:17.933Z,1008.61
2018-12-06T09:49:17.992Z,1008.66
2018-12-06T09:50:18.053Z,1008.62
2018-12-06T09:51:18.109Z,1008.60
2018-12-06T09:52:18.169Z,1008.65
2018-12-06T09:53:18.228Z,1008.63
2018-12-06T09:54:18.285Z,1008.68
2018-12-06T09:55:18.344Z,1008.68
2018-12-06T09:56:18.403Z,1008.71
2018-12-06T09:57:18.462Z,1008.66
2018-12-06T09:58:18.529Z,1008.67
2018-12-06T09:59:18.596Z,1008.65
2018-12-06T10:00:18.639Z,1008.63
2018-12-06T10:01:18.702Z,1008.62
2018-12-06T10:02:18.757Z,1008.57
2018-12-06T10:03:18.815Z,1008.52
2018-12-06T10:04:18.875Z,1008.49
2018-12-06T10:05:18.973Z,1008.47
2018-12-06T10:06:18.992Z,1008.47
2018-12-06T10:07:19.583Z,1008.48
2018-12-06T10:08:19.110Z,1008.45
2018-12-06T10:09:19.171Z,1008.45
2018-12-06T10:10:19.229Z,1008.40
2018-12-06T10:11:19.287Z,1008.40
2018-12-06T10:12:19.378Z,1008.32
2018-12-06T10:13:19.407Z,1008.28
2018-12-06T10:14:19.751Z,1008.25
2018-12-06T10:15:19.524Z,1008.25
2018-12-06T10:16:19.583Z,1008.26
2018-12-06T10:17:19.641Z,1008.32
2018-12-06T10:18:19.717Z,1008.31
2018-12-06T10:19:19.760Z,1008.33
2018-12-06T10:20:19.818Z,1008.32
2018-12-06T10:21:19.877Z,1008.43
2018-12-06T10:22:19.937Z,1008.42
2018-12-06T10:23:19.998Z,1008.44
2018-12-06T10:24:20.056Z,1008.45
2018-12-06T10:25:20.121Z,1008.48
2018-12-06T10:26:20.215Z,1008.45
2018-12-06T10:27:20.231Z,1008.43
2018-12-06T10:28:20.292Z,1008.42
2018-12-06T10:29:20.351Z,1008.39
2018-12-06T10:30:20.410Z,1008.41
2018-12-06T10:31:20.469Z,1008.43
2018-12-06T10:32:20.547Z,1008.44
2018-12-06T10:33:20.590Z,1008.41
2018-12-06T10:34:20.668Z,1008.39
2018-12-06T10:35:20.708Z,1008.39
2018-12-06T10:36:20.766Z,1008.36
2018-12-06T10:37:20.825Z,1008.42
2018-12-06T10:38:20.884Z,1008.42
2018-12-06T10:39:20.941Z,1008.42
2018-12-06T10:40:21.004Z,1008.40
2018-12-06T10:41:21.064Z,1008.41
2018-12-06T10:42:21.119Z,1008.46
2018-12-06T10:43:21.179Z,1008.47
2018-12-06T10:44:21.239Z,1008.51
2018-12-06T10:45:21.297Z,1008.52
2018-12-06T10:46:21.356Z,1008.53
2018-12-06T10:47:21.415Z,1008.50
2018-12-06T10:48:21.474Z,1008.50
2018-12-06T10:49:21.534Z,1008.45
2018-12-06T10:50:21.592Z,1008.44
2018-12-06T10:51:21.652Z,1008.47
2018-12-06T10:52:21.711Z,1008.44
2018-12-06T10:53:21.769Z,1008.43
2018-12-06T10:54:21.829Z,1008.45
2018-12-06T10:55:21.888Z,1008.44
2018-12-06T10:56:21.947Z,1008.52
2018-12-06T10:57:22.109Z,1008.55
2018-12-06T10:58:22.064Z,1008.55
2018-12-06T10:59:22.126Z,1008.52
2018-12-06T11:00:22.183Z,1008.55
2018-12-06T11:01:22.242Z,1008.56
2018-12-06T11:02:22.300Z,1008.59
2018-12-06T11:03:22.382Z,1008.57
2018-12-06T11:04:22.876Z,1008.64
2018-12-06T11:05:22.476Z,1008.65
2018-12-06T11:06:22.534Z,1008.73
2018-12-06T11:07:22.594Z,1008.73
2018-12-06T11:08:22.653Z,1008.73
2018-12-06T11:09:22.710Z,1008.71
2018-12-06T11:10:22.770Z,1008.72
2018-12-06T11:11:22.828Z,1008.69
2018-12-06T11:12:22.890Z,1008.71
2018-12-06T11:13:22.946Z,1008.72
2018-12-06T11:14:23.005Z,1008.71
2018-12-06T11:15:23.065Z,1008.69
2018-12-06T11:16:23.124Z,1008.68
2018-12-06T11:17:23.181Z,1008.69
2018-12-06T11:18:23.239Z,1008.64
2018-12-06T11:19:23.297Z,1008.58
2018-12-06T11:20:23.364Z,1008.56
2018-12-06T11:21:23.415Z,1008.56
2018-12-06T11:22:23.473Z,1008.46
2018-12-06T11:23:23.529Z,1008.53
2018-12-06T11:24:23.593Z,1008.46
2018-12-06T11:25:23.968Z,1008.52
2018-12-06T11:26:23.803Z,1008.49
2018-12-06T11:27:23.767Z,1008.55
2018-12-06T11:28:23.825Z,1008.51
2018-12-06T11:29:23.885Z,1008.52
2018-12-06T11:30:23.946Z,1008.50
2018-12-06T11:31:24.369Z,1008.44
2018-12-06T11:32:24.060Z,1008.41
2018-12-06T11:33:24.121Z,1008.45
2018-12-06T11:34:24.183Z,1008.41
2018-12-06T11:35:24.236Z,1008.38
2018-12-06T11:36:24.297Z,1008.37
2018-12-06T11:37:24.353Z,1008.37
2018-12-06T11:38:24.412Z,1008.38
2018-12-06T11:39:24.471Z,1008.35
2018-12-06T11:40:24.529Z,1008.41
2018-12-06T11:41:24.588Z,1008.47
2018-12-06T11:42:24.649Z,1008.41
2018-12-06T11:43:24.705Z,1008.46
2018-12-06T11:44:24.766Z,1008.48
2018-12-06T11:45:24.884Z,1008.49
2018-12-06T11:46:24.884Z,1008.51
2018-12-06T11:47:24.979Z,1008.56
2018-12-06T11:48:27.012Z,1008.56
2018-12-06T11:49:25.098Z,1008.57
2018-12-06T11:50:25.118Z,1008.59
2018-12-06T11:51:25.177Z,1008.57
2018-12-06T11:52:25.237Z,1008.60
2018-12-06T11:53:25.715Z,1008.58
2018-12-06T11:54:25.375Z,1008.58
2018-12-06T11:55:25.495Z,1008.62
2018-12-06T11:56:25.556Z,1008.55
2018-12-06T11:57:25.538Z,1008.63
2018-12-06T11:58:25.624Z,1008.55
2018-12-06T11:59:25.651Z,1008.53
2018-12-06T12:00:25.708Z,1008.55
2018-12-06T12:01:25.800Z,1008.53
2018-12-06T12:02:25.826Z,1008.55
2018-12-06T12:03:25.884Z,1008.56
2018-12-06T12:04:26.535Z,1008.57
2018-12-06T12:05:26.002Z,1008.61
2018-12-06T12:06:26.062Z,1008.63